Time;durP1;ratioP1;P1;durP2;ratioP2;P2;SDS_P1;SDS_P2;PMS_P1;PMS_P2;Temp;Humidity;BMP_temperature;BMP_pressure;BME280_temperature;BME280_humidity;BME280_pressure;Samples;Min_cycle;Max_cycle;Signal;HPM_P1;HPM_P2
2023/08/27 00:00:13;;;;;;;17.50;11.30;;;;;;;21.20;86.78;100364.38;2058578;28;20090;-76
2023/08/27 00:01:18;;;;;;;17.27;11.15;;;;;;;21.17;86.62;100347.88;2059344;28;20271;-76
2023/08/27 00:02:19;;;;;;;14.43;10.68;;;;;;;21.17;86.72;100343.22;2066474;28;20041;-76
2023/08/27 00:03:27;;;;;;;15.70;10.80;;;;;;;21.17;86.83;100339.69;2057916;28;20103;-76
2023/08/27 00:04:28;;;;;;;16.98;11.15;;;;;;;21.16;86.88;100336.16;2067745;28;20161;-76
2023/08/27 00:05:35;;;;;;;19.20;11.45;;;;;;;21.14;86.92;100343.13;2057999;28;20747;-75
2023/08/27 00:06:41;;;;;;;15.23;11.45;;;;;;;21.12;86.71;100348.16;2061198;28;20036;-75
2023/08/27 00:07:44;;;;;;;15.63;11.13;;;;;;;21.11;86.76;100343.84;2081235;28;20034;-76
2023/08/27 00:08:46;;;;;;;15.52;10.50;;;;;;;21.10;86.89;100353.19;2079437;28;20037;-75
2023/08/27 00:09:49;;;;;;;15.75;11.32;;;;;;;21.09;86.96;100359.78;2074511;28;20034;-75
2023/08/27 00:11:16;;;;;;;16.75;12.00;;;;;;;21.06;86.91;100362.09;2074673;28;21377;-75
2023/08/27 00:12:21;;;;;;;17.38;11.23;;;;;;;21.07;86.96;100365.63;2080708;28;20038;-75
2023/08/27 00:13:23;;;;;;;17.38;10.57;;;;;;;21.06;87.03;100375.78;2065871;28;20081;-74
2023/08/27 00:14:26;;;;;;;16.05;10.52;;;;;;;21.06;86.87;100370.31;2066359;28;20031;-74
2023/08/27 00:15:31;;;;;;;17.67;11.82;;;;;;;21.06;86.77;100366.78;2066426;28;20711;-75
2023/08/27 00:16:37;;;;;;;15.57;10.45;;;;;;;21.05;86.92;100360.50;2066686;28;20158;-75
2023/08/27 00:17:44;;;;;;;16.80;10.65;;;;;;;21.05;86.81;100368.69;2067010;28;20846;-74
2023/08/27 00:18:46;;;;;;;18.83;11.88;;;;;;;21.01;86.92;100367.81;2058687;28;20161;-75
2023/08/27 00:19:50;;;;;;;18.08;10.20;;;;;;;21.00;87.15;100377.19;2050348;28;20036;-74
2023/08/27 00:20:52;;;;;;;13.77;10.25;;;;;;;20.99;87.10;100375.56;2058417;28;20046;-75
2023/08/27 00:21:57;;;;;;;16.60;11.43;;;;;;;20.99;87.08;100385.72;2066161;28;20091;-75
2023/08/27 00:23:04;;;;;;;18.27;12.02;;;;;;;20.98;87.25;100381.41;2074081;28;20236;-75
2023/08/27 00:24:10;;;;;;;17.65;10.30;;;;;;;20.95;87.12;100382.13;2074153;28;20030;-75
2023/08/27 00:25:14;;;;;;;17.60;11.63;;;;;;;20.95;87.14;100385.63;2082330;28;20038;-74
2023/08/27 00:26:16;;;;;;;15.80;10.75;;;;;;;20.94;87.18;100389.53;2057993;28;21017;-75
2023/08/27 00:27:21;;;;;;;14.50;9.85;;;;;;;20.95;87.30;100387.59;2066250;28;20133;-75
2023/08/27 00:28:25;;;;;;;13.85;10.85;;;;;;;20.93;87.16;100382.47;2074125;28;20069;-76
2023/08/27 00:29:30;;;;;;;11.90;8.88;;;;;;;20.92;87.35;100386.34;2074329;28;20038;-75
2023/08/27 00:30:34;;;;;;;13.88;9.45;;;;;;;20.93;87.16;100377.00;2058129;28;20039;-76
2023/08/27 00:31:36;;;;;;;16.35;10.73;;;;;;;20.92;87.09;100369.94;2050609;28;20099;-76
2023/08/27 00:32:38;;;;;;;15.15;10.13;;;;;;;20.89;87.05;100370.66;2065810;28;20050;-74
2023/08/27 00:33:43;;;;;;;14.52;10.13;;;;;;;20.88;87.05;100363.59;2058476;28;20035;-75
2023/08/27 00:34:44;;;;;;;14.70;10.23;;;;;;;20.87;87.13;100364.75;2066209;28;20042;-75
2023/08/27 00:35:48;;;;;;;14.75;10.48;;;;;;;20.83;86.93;100366.59;2074300;28;20038;-75
2023/08/27 00:36:53;;;;;;;14.18;10.00;;;;;;;20.82;87.15;100367.75;2074046;28;20038;-74
2023/08/27 00:37:55;;;;;;;13.95;9.18;;;;;;;20.80;86.96;100378.22;2065715;28;20034;-75
2023/08/27 00:38:57;;;;;;;15.82;11.05;;;;;;;20.79;86.96;100380.16;2066558;28;20154;-75
2023/08/27 00:40:08;;;;;;;17.15;10.30;;;;;;;20.77;87.03;100389.84;2073949;28;20119;-75
2023/08/27 00:41:13;;;;;;;11.65;8.63;;;;;;;20.76;86.89;100391.00;2066511;28;20031;-75
2023/08/27 00:42:20;;;;;;;15.32;10.73;;;;;;;20.74;86.99;100374.16;2066642;28;20961;-74
2023/08/27 00:43:26;;;;;;;14.50;9.90;;;;;;;20.73;86.74;100378.06;2065930;28;20125;-75
2023/08/27 00:44:30;;;;;;;13.57;9.93;;;;;;;20.73;86.76;100372.59;2059199;28;20038;-75
2023/08/27 00:45:36;;;;;;;17.55;10.07;;;;;;;20.71;87.10;100370.22;2066740;28;21357;-75
2023/08/27 00:46:48;;;;;;;13.65;9.52;;;;;;;20.70;86.88;100373.28;2058236;28;20042;-75
2023/08/27 00:47:51;;;;;;;12.82;8.82;;;;;;;20.70;86.72;100378.75;2077751;28;20152;-74
2023/08/27 00:48:53;;;;;;;18.25;8.65;;;;;;;20.69;86.63;100379.91;2073036;28;20031;-75
2023/08/27 00:49:58;;;;;;;13.40;8.15;;;;;;;20.70;86.70;100386.94;2050516;28;20055;-75
2023/08/27 00:51:07;;;;;;;12.32;9.23;;;;;;;20.70;86.50;100387.72;2061839;28;20042;-75
2023/08/27 00:52:17;;;;;;;15.30;9.05;;;;;;;20.70;86.35;100389.69;2071569;28;20057;-75
2023/08/27 00:53:21;;;;;;;11.15;8.68;;;;;;;20.70;86.30;100397.88;2068519;28;20141;-75
2023/08/27 00:54:24;;;;;;;14.18;9.05;;;;;;;20.69;86.39;100402.56;2066400;28;20046;-74
2023/08/27 00:55:26;;;;;;;12.15;8.98;;;;;;;20.68;86.31;100395.50;2066882;28;20046;-74
2023/08/27 00:56:29;;;;;;;14.48;9.65;;;;;;;20.68;86.24;100397.41;2074203;28;20054;-75
2023/08/27 00:57:38;;;;;;;11.68;8.50;;;;;;;20.67;86.15;100390.38;2067020;28;20062;-74
2023/08/27 00:58:39;;;;;;;16.35;9.30;;;;;;;20.66;86.10;100392.31;2067764;28;20840;-74
2023/08/27 00:59:44;;;;;;;14.52;8.93;;;;;;;20.66;85.98;100395.06;2074417;28;20940;-74
2023/08/27 01:00:49;;;;;;;11.65;8.48;;;;;;;20.65;85.91;100384.47;2074561;28;20045;-74
2023/08/27 01:01:55;;;;;;;13.47;8.43;;;;;;;20.66;85.92;100383.34;2075560;28;20034;-74
2023/08/27 01:02:58;;;;;;;12.43;8.57;;;;;;;20.65;85.93;100376.25;2074624;28;20250;-74
2023/08/27 01:04:00;;;;;;;10.15;7.93;;;;;;;20.65;85.67;100385.28;2057991;28;20031;-73
2023/08/27 01:05:01;;;;;;;12.70;8.10;;;;;;;20.64;85.69;100380.16;2066157;28;20113;-73
2023/08/27 01:06:07;;;;;;;13.02;8.45;;;;;;;20.64;85.69;100388.34;2082461;28;20116;-75
2023/08/27 01:07:15;;;;;;;11.77;8.43;;;;;;;20.63;85.78;100400.44;2082864;28;20038;-76
2023/08/27 01:08:42;;;;;;;13.00;7.53;;;;;;;20.58;85.72;100399.53;2082075;28;20030;-76
2023/08/27 01:09:56;;;;;;;10.75;7.43;;;;;;;20.58;85.26;100399.53;2069140;28;20894;-74
2023/08/27 01:11:07;;;;;;;12.07;7.57;;;;;;;20.57;85.47;100402.63;2061537;28;20236;-73
2023/08/27 01:12:20;;;;;;;10.52;7.03;;;;;;;20.56;85.51;100410.03;2059476;28;20872;-73
2023/08/27 01:13:52;;;;;;;10.18;7.43;;;;;;;20.56;85.19;100409.22;2063270;28;20042;-74
2023/08/27 01:15:00;;;;;;;9.90;7.20;;;;;;;20.55;85.52;100405.72;2067570;28;20841;-73
2023/08/27 01:16:08;;;;;;;10.43;6.90;;;;;;;20.55;85.15;100400.25;2073424;28;20041;-74
2023/08/27 01:17:12;;;;;;;11.60;8.07;;;;;;;20.52;85.15;100400.94;2089621;28;20036;-73
2023/08/27 01:18:14;;;;;;;11.20;7.72;;;;;;;20.51;85.20;100393.88;2080363;28;20904;-73
2023/08/27 01:19:18;;;;;;;12.43;7.40;;;;;;;20.51;85.07;100393.88;2065057;28;21320;-73
2023/08/27 01:20:20;;;;;;;10.02;7.00;;;;;;;20.50;85.11;100389.53;2072454;28;21204;-73
2023/08/27 01:21:24;;;;;;;11.63;7.35;;;;;;;20.50;85.10;100386.00;2073481;28;20045;-73
2023/08/27 01:22:29;;;;;;;9.88;7.10;;;;;;;20.48;84.92;100391.81;2072620;28;20113;-73
2023/08/27 01:23:39;;;;;;;13.70;8.13;;;;;;;20.48;84.78;100394.53;2066336;28;20023;-73
2023/08/27 01:24:41;;;;;;;8.38;6.47;;;;;;;20.48;84.77;100397.28;2065015;28;20042;-73
2023/08/27 01:25:52;;;;;;;10.73;7.00;;;;;;;20.47;84.57;100400.38;2067311;28;20797;-73
2023/08/27 01:27:16;;;;;;;11.73;7.50;;;;;;;20.44;84.75;100404.59;2076845;28;20037;-73
2023/08/27 01:28:28;;;;;;;11.13;6.95;;;;;;;20.41;84.83;100394.34;2088591;28;20156;-74
2023/08/27 01:29:56;;;;;;;12.82;6.90;;;;;;;20.40;84.39;100387.31;2086931;28;20039;-72
2023/08/27 01:31:06;;;;;;;10.02;6.88;;;;;;;20.40;84.36;100383.75;2088380;28;20041;-73
2023/08/27 01:32:41;;;;;;;8.27;5.85;;;;;;;20.40;84.20;100381.03;2064069;28;20165;-74
2023/08/27 01:33:54;;;;;;;9.93;6.38;;;;;;;20.37;84.45;100377.88;2066234;28;20034;-73
2023/08/27 01:34:56;;;;;;;;;;;;;;;20.38;84.23;100381.41;2059650;28;20039;-74
2023/08/27 01:35:58;;;;;;;8.38;5.93;;;;;;;20.38;84.33;100376.72;2080767;28;19968;-74
2023/08/27 01:37:02;;;;;;;9.63;6.85;;;;;;;20.38;84.34;100375.94;2096588;28;20037;-73
2023/08/27 01:38:04;;;;;;;8.35;5.60;;;;;;;20.37;84.29;100383.34;2088549;28;20042;-74
2023/08/27 01:39:08;;;;;;;10.02;6.00;;;;;;;20.36;84.19;100372.75;2088535;28;20887;-73
2023/08/27 01:40:17;;;;;;;10.30;6.05;;;;;;;20.35;84.18;100374.69;2065175;28;20034;-74
2023/08/27 01:41:19;;;;;;;11.45;6.60;;;;;;;20.33;84.02;100370.72;2064852;28;20042;-73
2023/08/27 01:42:26;;;;;;;9.15;6.32;;;;;;;20.31;84.04;100375.75;2081624;28;20266;-72
2023/08/27 01:43:31;;;;;;;10.23;5.65;;;;;;;20.33;83.79;100373.44;2071721;28;20042;-73
2023/08/27 01:44:36;;;;;;;8.50;5.60;;;;;;;20.31;83.91;100375.75;2065908;28;20035;-73
2023/08/27 01:45:38;;;;;;;11.07;6.25;;;;;;;20.29;83.90;100375.28;2071926;28;20070;-73
2023/08/27 01:46:43;;;;;;;10.52;6.55;;;;;;;20.29;83.94;100380.75;2057028;28;20035;-73
2023/08/27 01:47:47;;;;;;;8.52;5.75;;;;;;;20.26;83.80;100376.78;2072843;28;20861;-73
2023/08/27 01:48:49;;;;;;;7.93;6.00;;;;;;;20.28;83.96;100379.19;2081067;28;20041;-73
2023/08/27 01:49:54;;;;;;;7.85;5.63;;;;;;;20.26;83.68;100376.00;2080862;28;20105;-73
2023/08/27 01:50:58;;;;;;;11.77;5.60;;;;;;;20.25;83.77;100371.69;2065036;28;20107;-73
2023/08/27 01:52:01;;;;;;;8.65;5.85;;;;;;;20.24;83.84;100367.34;2077930;28;21015;-73
2023/08/27 01:53:04;;;;;;;8.65;5.97;;;;;;;20.23;83.85;100360.31;2080038;28;20041;-73
2023/08/27 01:54:07;;;;;;;7.85;5.38;;;;;;;20.20;83.85;100361.78;2073216;28;20045;-73
2023/08/27 01:55:12;;;;;;;9.38;5.50;;;;;;;20.20;83.76;100361.00;2066172;28;20034;-73
2023/08/27 01:56:14;;;;;;;8.73;6.00;;;;;;;20.18;83.72;100363.31;2074087;28;20030;-73
2023/08/27 01:57:16;;;;;;;8.27;5.50;;;;;;;20.18;83.73;100363.31;2073658;28;20976;-73
2023/08/27 01:58:18;;;;;;;8.18;5.38;;;;;;;20.17;83.61;100369.88;2057586;28;20131;-73
2023/08/27 01:59:20;;;;;;;6.60;5.25;;;;;;;20.14;83.91;100377.66;2057871;28;20035;-73
2023/08/27 02:00:28;;;;;;;9.38;5.55;;;;;;;20.14;83.59;100374.09;2073798;28;20801;-72
2023/08/27 02:01:31;;;;;;;9.13;5.30;;;;;;;20.12;83.73;100371.72;2073752;28;20892;-72
2023/08/27 02:02:33;;;;;;;10.25;5.97;;;;;;;20.12;83.72;100382.66;2057413;28;20081;-73
2023/08/27 02:03:37;;;;;;;9.95;6.03;;;;;;;20.11;83.86;100378.34;2057623;28;20071;-73
2023/08/27 02:04:39;;;;;;;10.15;5.93;;;;;;;20.11;83.53;100386.53;2073596;28;20038;-73
2023/08/27 02:05:41;;;;;;;8.88;6.05;;;;;;;20.09;83.38;100388.00;2073813;28;20193;-73
2023/08/27 02:06:43;;;;;;;11.95;6.05;;;;;;;20.07;83.53;100388.34;2073836;28;20165;-73
2023/08/27 02:07:48;;;;;;;6.70;5.30;;;;;;;20.09;83.53;100394.25;2074031;28;20050;-72
2023/08/27 02:08:54;;;;;;;7.90;5.72;;;;;;;20.08;83.48;100384.50;2088344;28;20036;-73
2023/08/27 02:09:58;;;;;;;9.40;5.90;;;;;;;20.09;83.57;100396.19;2073075;28;20042;-72
2023/08/27 02:11:04;;;;;;;13.55;5.63;;;;;;;20.07;83.38;100391.06;2068811;28;20035;-73
2023/08/27 02:12:07;;;;;;;8.90;5.30;;;;;;;20.07;83.42;100390.28;2073266;28;20758;-73
2023/08/27 02:13:10;;;;;;;9.52;5.50;;;;;;;20.06;83.59;100384.03;2074102;28;20144;-73
2023/08/27 02:14:14;;;;;;;6.95;5.65;;;;;;;20.05;83.43;100387.91;2081721;28;20042;-73
2023/08/27 02:15:18;;;;;;;11.02;5.45;;;;;;;20.05;83.47;100393.38;2074549;28;20052;-73
2023/08/27 02:16:21;;;;;;;7.53;5.32;;;;;;;20.02;83.39;100388.59;2082366;28;20037;-72
2023/08/27 02:17:25;;;;;;;8.52;5.03;;;;;;;20.01;83.43;100387.00;2089651;28;20127;-73
2023/08/27 02:18:31;;;;;;;7.40;4.63;;;;;;;20.02;83.28;100388.59;2089897;28;20034;-73
2023/08/27 02:19:34;;;;;;;8.20;5.60;;;;;;;19.99;83.39;100381.13;2073847;28;20034;-73
2023/08/27 02:20:36;;;;;;;8.57;5.15;;;;;;;19.98;83.31;100371.31;2073688;28;20041;-74
2023/08/27 02:21:41;;;;;;;9.25;5.00;;;;;;;19.97;83.36;100369.75;2065434;28;20138;-75
2023/08/27 02:22:46;;;;;;;7.82;4.97;;;;;;;19.97;83.41;100369.75;2066619;28;20042;-74
2023/08/27 02:23:50;;;;;;;8.88;5.10;;;;;;;19.98;83.56;100360.41;2064658;28;20051;-74
2023/08/27 02:24:54;;;;;;;7.53;4.70;;;;;;;19.97;83.57;100358.03;2051313;28;20783;-74
2023/08/27 02:25:58;;;;;;;6.97;4.85;;;;;;;19.97;83.52;100361.56;2058614;28;20035;-74
2023/08/27 02:27:03;;;;;;;7.82;5.47;;;;;;;19.95;83.60;100355.63;2060059;28;20035;-74
2023/08/27 02:28:06;;;;;;;7.65;4.72;;;;;;;19.96;83.42;100359.97;2073395;28;20062;-74
2023/08/27 02:29:10;;;;;;;7.18;5.30;;;;;;;19.96;83.48;100356.47;2089474;28;20123;-74
2023/08/27 02:30:18;;;;;;;7.70;4.70;;;;;;;19.95;83.53;100344.72;2074471;28;20153;-74
2023/08/27 02:31:20;;;;;;;8.07;4.88;;;;;;;19.96;83.46;100351.78;2081887;28;20038;-74
2023/08/27 02:32:24;;;;;;;7.03;4.75;;;;;;;19.94;83.44;100351.31;2081676;28;20085;-74
2023/08/27 02:33:27;;;;;;;8.50;4.82;;;;;;;19.94;83.53;100356.00;2065285;28;20157;-73
2023/08/27 02:34:29;;;;;;;6.53;4.78;;;;;;;19.94;83.44;100359.50;2073615;28;20846;-74
2023/08/27 02:35:35;;;;;;;7.72;4.90;;;;;;;19.94;83.43;100358.72;2073067;28;21333;-74
2023/08/27 02:36:44;;;;;;;8.25;4.63;;;;;;;19.92;83.38;100359.06;2074714;28;20038;-73
2023/08/27 02:37:48;;;;;;;5.40;4.63;;;;;;;19.92;83.33;100361.78;2081579;28;20104;-74
2023/08/27 02:38:50;;;;;;;8.02;4.85;;;;;;;19.92;83.40;100359.06;2081899;28;20056;-74
2023/08/27 02:39:54;;;;;;;7.90;4.50;;;;;;;19.91;83.37;100360.22;2073607;28;20714;-74
2023/08/27 02:40:59;;;;;;;6.20;4.65;;;;;;;19.91;83.32;100362.94;2082081;28;20034;-74
2023/08/27 02:42:00;;;;;;;6.60;4.60;;;;;;;19.90;83.23;100366.81;2081742;28;20030;-75
2023/08/27 02:43:07;;;;;;;9.63;4.70;;;;;;;19.90;83.15;100362.16;2090303;28;20045;-74
2023/08/27 02:44:12;;;;;;;8.57;5.00;;;;;;;19.89;83.20;100362.47;2097551;28;20746;-75
2023/08/27 02:45:14;;;;;;;9.18;5.00;;;;;;;19.87;83.23;100351.91;2089800;28;20033;-75
2023/08/27 02:46:20;;;;;;;9.10;4.80;;;;;;;19.89;83.20;100357.00;2081587;28;20194;-75
2023/08/27 02:47:22;;;;;;;6.72;4.90;;;;;;;19.89;83.29;100355.09;2082224;28;20196;-75
2023/08/27 02:48:24;;;;;;;8.55;4.95;;;;;;;19.87;82.96;100349.19;2081777;28;20101;-75
2023/08/27 02:49:31;;;;;;;7.93;4.75;;;;;;;19.87;83.03;100348.41;2073683;28;20030;-74
2023/08/27 02:50:35;;;;;;;6.03;4.55;;;;;;;19.86;83.06;100346.78;2073833;28;20043;-74
2023/08/27 02:51:37;;;;;;;7.63;5.20;;;;;;;19.86;83.23;100347.63;2078072;28;20049;-73
2023/08/27 02:52:42;;;;;;;7.10;4.90;;;;;;;19.86;83.27;100357.72;2073566;28;20049;-76
2023/08/27 02:53:46;;;;;;;5.93;4.63;;;;;;;19.86;83.12;100365.91;2073919;28;20969;-73
2023/08/27 02:54:49;;;;;;;6.78;4.60;;;;;;;19.86;83.08;100374.06;2073608;28;20875;-73
2023/08/27 02:55:52;;;;;;;8.27;4.80;;;;;;;19.84;83.25;100377.16;2065233;28;20051;-74
2023/08/27 02:56:56;;;;;;;12.10;6.35;;;;;;;19.85;83.11;100381.47;2065699;28;20889;-73
2023/08/27 02:58:02;;;;;;;6.60;4.90;;;;;;;19.86;83.32;100387.72;2081407;28;20040;-73
2023/08/27 02:59:06;;;;;;;6.70;4.30;;;;;;;19.82;83.25;100386.84;2073583;28;21037;-74
2023/08/27 03:00:12;;;;;;;8.93;4.78;;;;;;;19.83;83.23;100386.50;2081805;28;20037;-74
2023/08/27 03:01:20;;;;;;;6.20;4.60;;;;;;;19.83;83.15;100393.88;2073012;28;20161;-73
2023/08/27 03:02:25;;;;;;;9.43;5.35;;;;;;;19.82;83.14;100400.47;2066498;28;20102;-76
2023/08/27 03:03:32;;;;;;;7.60;4.20;;;;;;;19.83;83.13;100418.41;2073707;28;20822;-76
2023/08/27 03:04:39;;;;;;;7.55;4.13;;;;;;;19.82;83.23;100414.13;2073323;28;20848;-74
2023/08/27 03:05:46;;;;;;;6.78;4.13;;;;;;;19.79;83.28;100417.53;2066708;28;20038;-73
2023/08/27 03:06:50;;;;;;;7.65;3.67;;;;;;;19.79;83.06;100417.53;2065407;28;20038;-76
2023/08/27 03:07:57;;;;;;;5.82;4.05;;;;;;;19.79;83.21;100417.53;2057573;28;20038;-73
2023/08/27 03:08:59;;;;;;;6.13;4.03;;;;;;;19.78;83.24;100407.75;2073187;28;20034;-73
2023/08/27 03:10:04;;;;;;;9.15;4.43;;;;;;;19.78;83.37;100418.69;2065036;28;20043;-73
2023/08/27 03:11:06;;;;;;;5.88;3.90;;;;;;;19.77;83.20;100408.91;2058009;28;20045;-75
2023/08/27 03:12:11;;;;;;;6.95;4.25;;;;;;;19.77;83.07;100409.69;2066207;28;20158;-75
2023/08/27 03:13:13;;;;;;;4.88;3.90;;;;;;;19.77;83.26;100404.25;2074012;28;20161;-73
2023/08/27 03:14:17;;;;;;;5.28;3.97;;;;;;;19.76;83.22;100408.09;2065594;28;20042;-73
2023/08/27 03:15:23;;;;;;;5.65;4.20;;;;;;;19.76;83.17;100412.75;2058908;28;20166;-72
2023/08/27 03:16:25;;;;;;;5.85;4.00;;;;;;;19.75;83.07;100411.19;2057338;28;20735;-73
2023/08/27 03:17:29;;;;;;;7.38;4.28;;;;;;;19.76;83.11;100415.50;2065445;28;20038;-73
2023/08/27 03:18:33;;;;;;;6.00;3.90;;;;;;;19.73;83.13;100402.53;2074497;28;20101;-73
2023/08/27 03:19:41;;;;;;;5.45;3.97;;;;;;;19.74;83.31;100412.31;2065902;28;20156;-73
2023/08/27 03:20:46;;;;;;;8.80;3.55;;;;;;;19.73;83.21;100419.69;2067532;28;20898;-74
2023/08/27 03:21:47;;;;;;;9.75;3.92;;;;;;;19.69;83.27;100416.06;2057645;28;20155;-74
2023/08/27 03:22:52;;;;;;;5.20;3.90;;;;;;;19.73;83.25;100430.59;2057513;28;20043;-74
2023/08/27 03:23:54;;;;;;;8.38;3.90;;;;;;;19.70;83.26;100419.59;2073298;28;20172;-74
2023/08/27 03:25:00;;;;;;;5.82;4.00;;;;;;;19.73;83.36;100435.28;2073492;28;20030;-74
2023/08/27 03:26:01;;;;;;;6.15;4.55;;;;;;;19.73;83.27;100435.28;2081269;28;20042;-74
2023/08/27 03:27:04;;;;;;;6.00;4.20;;;;;;;19.72;83.28;100434.47;2081250;28;20133;-74
2023/08/27 03:28:06;;;;;;;5.75;4.00;;;;;;;19.68;83.50;100434.38;2081401;28;20041;-74
2023/08/27 03:29:09;;;;;;;4.97;3.83;;;;;;;19.72;83.45;100442.66;2073307;28;20038;-74
2023/08/27 03:30:16;;;;;;;8.38;3.92;;;;;;;19.70;83.48;100442.19;2081653;28;20038;-74
2023/08/27 03:31:18;;;;;;;6.55;4.18;;;;;;;19.72;83.54;100450.06;2072946;28;20035;-74
2023/08/27 03:32:19;;;;;;;5.60;4.40;;;;;;;19.72;83.51;100445.38;2065403;28;20122;-74
2023/08/27 03:33:22;;;;;;;7.05;4.25;;;;;;;19.71;83.46;100451.19;2064707;28;20042;-74
2023/08/27 03:34:23;;;;;;;7.03;4.40;;;;;;;19.70;83.49;100442.19;2073543;28;20124;-74
2023/08/27 03:35:27;;;;;;;4.90;3.97;;;;;;;19.70;83.56;100441.41;2072743;28;20828;-74
2023/08/27 03:36:29;;;;;;;5.78;4.03;;;;;;;19.70;83.64;100444.13;2057589;28;20154;-74
2023/08/27 03:37:31;;;;;;;8.60;4.63;;;;;;;19.71;83.67;100437.56;2057001;28;20072;-74
2023/08/27 03:38:36;;;;;;;6.63;4.18;;;;;;;19.68;83.64;100442.56;2066568;28;20042;-74
2023/08/27 03:39:39;;;;;;;6.38;3.80;;;;;;;19.70;83.64;100433.22;2064860;28;20165;-74
2023/08/27 03:40:47;;;;;;;6.78;4.15;;;;;;;19.70;83.60;100442.19;2065827;28;20039;-74
2023/08/27 03:41:49;;;;;;;5.45;3.70;;;;;;;19.70;83.45;100435.94;2074029;28;20034;-74
2023/08/27 03:42:53;;;;;;;6.95;4.40;;;;;;;19.66;83.37;100431.19;2065034;28;20035;-74
2023/08/27 03:43:56;;;;;;;7.20;3.58;;;;;;;19.68;83.44;100426.19;2066601;28;20062;-74
2023/08/27 03:45:02;;;;;;;4.70;3.55;;;;;;;19.67;83.31;100421.88;2081424;28;20038;-74
2023/08/27 03:46:05;;;;;;;7.22;3.80;;;;;;;19.67;83.28;100427.34;2073141;28;20108;-74
2023/08/27 03:47:09;;;;;;;4.97;3.45;;;;;;;19.68;83.17;100439.81;2074392;28;20086;-75
2023/08/27 03:48:11;;;;;;;6.13;3.97;;;;;;;19.67;82.99;100423.78;2089063;28;20943;-75
2023/08/27 03:49:15;;;;;;;4.97;3.67;;;;;;;19.67;83.14;100426.50;2064980;28;20039;-75
2023/08/27 03:50:18;;;;;;;7.57;3.70;;;;;;;19.66;83.16;100422.22;2058235;28;20099;-74
2023/08/27 03:51:19;;;;;;;4.97;3.15;;;;;;;19.65;83.11;100418.69;2072471;28;20047;-74
2023/08/27 03:52:23;;;;;;;6.18;3.45;;;;;;;19.66;83.03;100414.81;2073111;28;20864;-74
2023/08/27 03:53:28;;;;;;;4.78;3.40;;;;;;;19.65;82.92;100407.78;2073076;28;20061;-74
2023/08/27 03:54:34;;;;;;;6.18;3.58;;;;;;;19.64;82.78;100410.84;2074575;28;20141;-74
2023/08/27 03:55:43;;;;;;;4.78;3.13;;;;;;;19.66;82.89;100408.56;2081246;28;20151;-73
2023/08/27 03:56:48;;;;;;;5.50;4.07;;;;;;;19.64;82.56;100410.84;2082070;28;20076;-74
2023/08/27 03:57:50;;;;;;;5.07;2.92;;;;;;;19.65;82.60;100418.69;2072549;28;20054;-74
2023/08/27 03:58:52;;;;;;;5.10;3.92;;;;;;;19.64;82.52;100421.75;2081733;28;20066;-74
2023/08/27 03:59:56;;;;;;;5.45;3.13;;;;;;;19.64;82.54;100419.84;2081280;28;20167;-74
2023/08/27 04:01:02;;;;;;;6.18;3.28;;;;;;;19.65;82.36;100421.41;2073942;28;20033;-75
2023/08/27 04:02:08;;;;;;;5.82;3.22;;;;;;;19.64;82.33;100422.56;2089451;28;20037;-73
2023/08/27 04:03:09;;;;;;;5.03;3.38;;;;;;;19.65;82.38;100417.91;2089683;28;20034;-74
2023/08/27 04:04:14;;;;;;;6.38;3.58;;;;;;;19.65;82.47;100417.91;2081467;28;20048;-74
2023/08/27 04:05:18;;;;;;;7.75;3.10;;;;;;;19.64;82.40;100422.56;2065817;28;20045;-73
2023/08/27 04:06:25;;;;;;;5.47;3.20;;;;;;;19.63;82.54;100420.94;2066335;28;20761;-74
2023/08/27 04:07:27;;;;;;;5.50;3.05;;;;;;;19.63;82.56;100426.38;2066300;28;20046;-74
2023/08/27 04:08:29;;;;;;;6.55;4.07;;;;;;;19.65;82.61;100428.81;2065151;28;20046;-74
2023/08/27 04:09:32;;;;;;;3.33;2.92;;;;;;;19.64;82.75;100422.56;2064792;28;20117;-74
2023/08/27 04:10:33;;;;;;;4.03;2.90;;;;;;;19.62;82.70;100416.63;2073108;28;20967;-74
2023/08/27 04:11:38;;;;;;;7.75;3.10;;;;;;;19.61;82.55;100412.31;2073342;28;20841;-74
2023/08/27 04:12:43;;;;;;;6.57;2.70;;;;;;;19.64;82.51;100421.75;2064958;28;20035;-74
2023/08/27 04:13:53;;;;;;;4.85;2.70;;;;;;;19.62;82.30;100419.34;2058823;28;20158;-74
2023/08/27 04:14:55;;;;;;;3.15;2.40;;;;;;;19.63;82.20;100431.84;2066918;28;20027;-74
2023/08/27 04:16:07;;;;;;;6.07;3.10;;;;;;;19.61;82.25;100428.69;2066018;28;20046;-74
2023/08/27 04:17:09;;;;;;;5.28;3.15;;;;;;;19.64;82.31;100433.47;2061286;28;20031;-74
2023/08/27 04:18:12;;;;;;;4.75;2.65;;;;;;;19.63;82.18;100436.50;2067070;28;20154;-74
2023/08/27 04:19:15;;;;;;;4.05;2.58;;;;;;;19.63;82.26;100429.09;2082756;28;20026;-74
2023/08/27 04:20:20;;;;;;;3.92;2.38;;;;;;;19.62;82.17;100432.19;2083154;28;20045;-74
2023/08/27 04:21:22;;;;;;;3.25;2.60;;;;;;;19.63;82.26;100434.56;2074419;28;20090;-74
2023/08/27 04:22:29;;;;;;;4.28;2.45;;;;;;;19.62;82.31;100427.53;2074558;28;20045;-74
2023/08/27 04:23:33;;;;;;;3.92;2.80;;;;;;;19.62;82.13;100434.91;2082642;28;20156;-74
2023/08/27 04:24:34;;;;;;;3.65;2.55;;;;;;;19.63;82.15;100436.50;2074635;28;20030;-74
2023/08/27 04:25:37;;;;;;;3.67;2.33;;;;;;;19.62;82.01;100432.19;2074253;28;20041;-73
2023/08/27 04:26:39;;;;;;;3.63;2.65;;;;;;;19.62;81.96;100443.09;2066219;28;20157;-74
2023/08/27 04:27:44;;;;;;;4.22;2.97;;;;;;;19.61;82.00;100439.59;2058173;28;20818;-73
2023/08/27 04:28:50;;;;;;;3.95;2.70;;;;;;;19.60;82.05;100435.25;2067996;28;20082;-73
2023/08/27 04:29:53;;;;;;;2.88;2.53;;;;;;;19.57;81.97;100427.75;2083125;28;20034;-75
2023/08/27 04:30:57;;;;;;;3.45;2.70;;;;;;;19.60;81.93;100424.34;2074197;28;20043;-74
2023/08/27 04:31:59;;;;;;;3.10;2.63;;;;;;;19.59;81.94;100425.47;2075325;28;20140;-74
2023/08/27 04:33:05;;;;;;;5.20;2.90;;;;;;;19.60;82.17;100432.53;2082794;28;20140;-74
2023/08/27 04:34:06;;;;;;;5.60;2.90;;;;;;;19.59;82.00;100425.47;2083252;28;20942;-74
2023/08/27 04:35:14;;;;;;;3.33;2.83;;;;;;;19.59;81.88;100430.16;2082465;28;20042;-74
2023/08/27 04:36:18;;;;;;;7.57;3.72;;;;;;;19.59;82.09;100425.47;2082602;28;20037;-74
2023/08/27 04:37:27;;;;;;;3.65;2.80;;;;;;;19.59;82.09;100425.47;2058196;28;20046;-75
2023/08/27 04:38:31;;;;;;;5.68;2.63;;;;;;;19.60;82.20;100421.59;2061462;28;20838;-74
2023/08/27 04:39:36;;;;;;;3.78;2.75;;;;;;;19.60;82.09;100416.16;2083051;28;20096;-74
2023/08/27 04:40:44;;;;;;;4.90;2.70;;;;;;;19.60;82.03;100410.69;2082186;28;20034;-74
2023/08/27 04:41:46;;;;;;;5.55;2.95;;;;;;;19.60;82.17;100421.59;2067336;28;20030;-74
2023/08/27 04:42:50;;;;;;;4.70;2.90;;;;;;;19.60;81.90;100432.53;2074606;28;20030;-74
2023/08/27 04:43:54;;;;;;;6.60;3.15;;;;;;;19.62;82.13;100430.25;2083341;28;20033;-74
2023/08/27 04:44:56;;;;;;;4.25;2.70;;;;;;;19.62;82.10;100435.72;2074148;28;20034;-74
2023/08/27 04:46:03;;;;;;;3.92;2.78;;;;;;;19.63;82.19;100431.03;2066392;28;20045;-74
2023/08/27 04:47:09;;;;;;;4.38;2.70;;;;;;;19.63;82.24;100441.94;2073923;28;20038;-73
2023/08/27 04:48:10;;;;;;;3.85;3.03;;;;;;;19.63;82.44;100441.94;2075503;28;20045;-74
2023/08/27 04:49:17;;;;;;;3.75;2.88;;;;;;;19.62;82.53;100441.16;2073996;28;20038;-74
2023/08/27 04:50:19;;;;;;;4.95;3.15;;;;;;;19.63;82.62;100445.47;2074517;28;20064;-74
2023/08/27 04:51:21;;;;;;;4.53;2.50;;;;;;;19.64;82.74;100443.56;2072862;28;20027;-75
2023/08/27 04:52:23;;;;;;;5.65;2.70;;;;;;;19.64;82.88;100441.66;2065556;28;20141;-74
2023/08/27 04:53:28;;;;;;;2.88;2.47;;;;;;;19.65;82.94;100437.78;2057739;28;20040;-74
2023/08/27 04:54:32;;;;;;;4.10;2.50;;;;;;;19.64;83.25;100433.47;2050951;28;20146;-74
2023/08/27 04:55:41;;;;;;;3.97;2.75;;;;;;;19.66;83.23;100424.94;2065940;28;20035;-74
2023/08/27 04:56:44;;;;;;;4.72;2.88;;;;;;;19.66;83.16;100425.72;2082121;28;20144;-74
2023/08/27 04:57:48;;;;;;;4.60;3.00;;;;;;;19.68;83.19;100430.84;2073515;28;20872;-74
2023/08/27 04:58:49;;;;;;;3.88;2.75;;;;;;;19.67;83.29;100429.25;2057384;28;21007;-74
2023/08/27 04:59:53;;;;;;;6.10;2.80;;;;;;;19.69;83.37;100437.88;2057805;28;20044;-74